Auburndale, WI

8:09 PM CDT on July 23, 2016 (GMT -0500)
2nd St | | Change Station

Elev 1221 ft 44.64 °N, 90.10 °W | Updated 4 minutes ago

Scattered Clouds
Scattered Clouds
68.6 °F
Feels Like 68.6 °F
N
0.0
Wind Variable Wind from SSE
Gusts 9.0 mph

Today
High -- | Low -- °F
--% Chance of Precip.
Yesterday
High -- | Low -- °F
Precip. -- in
Pressure 29.85 in
Visibility 10.0 miles
Clouds Scattered Clouds 9500 ft
Dew Point 60 °F
Humidity 74%
Rainfall 0.09 in
Snow Depth Not available.
5:37 AM 8:35 PM
Waning Gibbous, 81% visible
METAR KMFI 240054Z AUTO 15007KT 10SM SCT095 22/19 A2987 RMK AO2 SLP107 T02170189
Pressure 29.85 in
Visibility 10.0 miles
Clouds Scattered Clouds 9500 ft
Dew Point 60 °F
Humidity 74%
Rainfall 0.09 in
Snow Depth Not available.
5:37 AM 8:35 PM
Waning Gibbous, 81% visible
METAR KMFI 240054Z AUTO 15007KT 10SM SCT095 22/19 A2987 RMK AO2 SLP107 T02170189

10-Day Weather Forecast

Almanac

Astronomy

Jul. 23, 2016 Rise Set
Actual Time
Civil Twilight
Nautical Twilight
Astronomical Twilight
Moon
Length of Visible Light
Length of Day
Tomorrow will be .
, % of the Moon is Illuminated

Today's Extremes

State Highs State Lows

Community

WunderPhotos

Upload Photos

1,926,992 photos uploaded!

WunderBlog® & News

Nearby

Air Quality

  Air Quality AQ Index Pollutant
Not available.

Snow Depth

Station Depth Elevation

Earthquake Activity

City Distance Mag. Time & Date
Minimum magnitude displayed is 2.5.

Coastal Water Temperatures

Place Temperature

Stations

Nearby Weather Stations

Station Location Temp. Windchill Dew Point Humidity Wind Precip. Elev Updated Type
                   

Watches & Warnings

There are currently no watches in effect.